Time;durP1;ratioP1;P1;durP2;ratioP2;P2;SDS_P1;SDS_P2;PMS_P1;PMS_P2;Temp;Humidity;BMP_temperature;BMP_pressure;BME280_temperature;BME280_humidity;BME280_pressure;Samples;Min_cycle;Max_cycle;Signal;HPM_P1;HPM_P2
2023/07/07 00:01:48;;;;;;;3.58;2.22;;;;;;;;;;6299891;28;20060;-80
2023/07/07 00:05:02;;;;;;;3.40;1.98;;;;;;;;;;6280501;28;20083;-81
2023/07/07 00:08:06;;;;;;;4.05;2.10;;;;;;;;;;6300500;28;20108;-81
2023/07/07 00:11:11;;;;;;;7.80;2.28;;;;;;;;;;6301957;28;20063;-80
2023/07/07 00:14:18;;;;;;;6.72;2.30;;;;;;;;;;6291412;28;20086;-81
2023/07/07 00:24:15;;;;;;;3.30;1.70;;;;;;;;;;6293286;28;20341;-80
2023/07/07 00:27:18;;;;;;;4.28;2.17;;;;;;;;;;6287609;28;20040;-80
2023/07/07 00:30:29;;;;;;;3.03;1.80;;;;;;;;;;6299639;28;20143;-82
2023/07/07 00:33:37;;;;;;;2.63;1.83;;;;;;;;;;6301540;28;20252;-81
2023/07/07 00:36:42;;;;;;;3.25;1.90;;;;;;;;;;6300064;28;24979;-82
2023/07/07 00:39:45;;;;;;;5.38;2.28;;;;;;;;;;6300407;28;20063;-81
2023/07/07 00:42:52;;;;;;;3.20;1.67;;;;;;;;;;6287894;28;20048;-81
2023/07/07 00:46:14;;;;;;;4.55;1.83;;;;;;;;;;6300907;28;20064;-81
2023/07/07 00:49:19;;;;;;;3.17;1.83;;;;;;;;;;6299845;28;20040;-80
2023/07/07 00:52:31;;;;;;;4.07;1.75;;;;;;;;;;6285821;28;20396;-81
2023/07/07 00:55:53;;;;;;;3.33;1.88;;;;;;;;;;6303818;28;20048;-81
2023/07/07 00:58:58;;;;;;;3.50;1.90;;;;;;;;;;6301517;28;20041;-81
2023/07/07 01:02:04;;;;;;;3.17;1.80;;;;;;;;;;6297026;28;20060;-81
2023/07/07 01:05:08;;;;;;;3.10;2.00;;;;;;;;;;6297659;28;20052;-81
2023/07/07 01:08:09;;;;;;;;;;;;;;;;;;6300309;28;20275;-81
2023/07/07 01:11:30;;;;;;;3.53;1.92;;;;;;;;;;6298550;28;19943;-81
2023/07/07 01:18:00;;;;;;;6.13;2.08;;;;;;;;;;6261136;28;20056;-81
2023/07/07 01:21:06;;;;;;;5.93;2.47;;;;;;;;;;6287472;28;20040;-81
2023/07/07 01:24:24;;;;;;;7.25;2.60;;;;;;;;;;6303674;28;20136;-81
2023/07/07 01:27:48;;;;;;;5.95;2.50;;;;;;;;;;6301530;28;20048;-81
2023/07/07 01:30:52;;;;;;;5.15;2.72;;;;;;;;;;6296514;28;20059;-81
2023/07/07 01:41:07;;;;;;;4.10;1.88;;;;;;;;;;6280415;28;20053;-82
2023/07/07 01:44:13;;;;;;;5.28;2.10;;;;;;;;;;6296970;28;20344;-82
2023/07/07 01:47:28;;;;;;;4.70;2.70;;;;;;;;;;6296946;28;20113;-82
2023/07/07 01:50:36;;;;;;;4.63;2.38;;;;;;;;;;6302431;28;20061;-82
2023/07/07 01:53:47;;;;;;;6.13;2.58;;;;;;;;;;6299120;28;20051;-81
2023/07/07 01:56:52;;;;;;;5.80;2.53;;;;;;;;;;6299740;28;20344;-81
2023/07/07 01:59:57;;;;;;;4.90;2.72;;;;;;;;;;6295979;28;20063;-81
2023/07/07 02:03:01;;;;;;;8.05;3.10;;;;;;;;;;6296941;28;20309;-82
2023/07/07 02:06:02;;;;;;;4.53;2.70;;;;;;;;;;6297685;28;20059;-81
2023/07/07 02:09:15;;;;;;;9.85;2.50;;;;;;;;;;6298460;28;20055;-82
2023/07/07 02:12:43;;;;;;;5.78;2.50;;;;;;;;;;6296855;28;20094;-82
2023/07/07 02:19:48;;;;;;;4.53;2.28;;;;;;;;;;6250144;28;20087;-82
2023/07/07 02:23:13;;;;;;;5.72;2.72;;;;;;;;;;6249343;28;20066;-81
2023/07/07 02:26:18;;;;;;;3.63;2.20;;;;;;;;;;6241954;28;20065;-81
2023/07/07 02:29:19;;;;;;;4.88;2.67;;;;;;;;;;6188659;28;20740;-81
2023/07/07 02:32:21;;;;;;;5.88;2.67;;;;;;;;;;6252076;28;20367;-81
2023/07/07 02:35:27;;;;;;;5.13;2.75;;;;;;;;;;6250696;28;20045;-81
2023/07/07 02:38:29;;;;;;;7.05;2.47;;;;;;;;;;6251341;28;20049;-81
2023/07/07 02:41:31;;;;;;;4.45;2.60;;;;;;;;;;6256495;28;20061;-80
2023/07/07 02:45:03;;;;;;;3.72;2.10;;;;;;;;;;6242530;28;20121;-81
2023/07/07 02:48:05;;;;;;;4.55;2.35;;;;;;;;;;6250850;28;20052;-81
2023/07/07 02:51:10;;;;;;;4.50;2.80;;;;;;;;;;6255763;28;20377;-81
2023/07/07 02:54:21;;;;;;;6.18;2.38;;;;;;;;;;6265496;28;20384;-80
2023/07/07 02:57:26;;;;;;;5.30;2.30;;;;;;;;;;6305046;28;20268;-81
2023/07/07 03:00:28;;;;;;;5.70;2.60;;;;;;;;;;6311656;28;20285;-81
2023/07/07 03:03:30;;;;;;;5.85;2.65;;;;;;;;;;6308431;28;20325;-80
2023/07/07 03:06:38;;;;;;;6.57;2.90;;;;;;;;;;6308442;28;20057;-80
2023/07/07 03:09:40;;;;;;;6.03;2.60;;;;;;;;;;6307248;28;20107;-81
2023/07/07 03:13:00;;;;;;;3.65;2.30;;;;;;;;;;6299214;28;20076;-81
2023/07/07 03:16:36;;;;;;;3.78;2.15;;;;;;;;;;6301885;28;20056;-81
2023/07/07 03:19:42;;;;;;;5.28;1.80;;;;;;;;;;6301398;28;20044;-81
2023/07/07 03:22:45;;;;;;;4.78;2.10;;;;;;;;;;6300870;28;20041;-81
2023/07/07 03:25:53;;;;;;;4.28;2.20;;;;;;;;;;6301252;28;20051;-81
2023/07/07 03:28:55;;;;;;;5.35;2.30;;;;;;;;;;6301434;28;20649;-82
2023/07/07 03:35:44;;;;;;;3.67;2.08;;;;;;;;;;6263969;28;20103;-81
2023/07/07 03:38:52;;;;;;;5.50;1.90;;;;;;;;;;6300324;28;20282;-81
2023/07/07 03:41:53;;;;;;;6.25;2.28;;;;;;;;;;6296616;28;20067;-81
2023/07/07 03:44:55;;;;;;;2.97;1.90;;;;;;;;;;6301766;28;20073;-80
2023/07/07 03:51:16;;;;;;;3.58;1.77;;;;;;;;;;6300286;28;20119;-81
2023/07/07 03:54:19;;;;;;;3.70;2.10;;;;;;;;;;6303177;28;20059;-81
2023/07/07 03:57:31;;;;;;;4.28;1.90;;;;;;;;;;6287340;28;20116;-81
2023/07/07 04:03:55;;;;;;;3.45;1.60;;;;;;;;;;6234020;28;20219;-81
2023/07/07 04:10:17;;;;;;;3.00;1.88;;;;;;;;;;6267690;28;20098;-80
2023/07/07 04:20:35;;;;;;;3.08;1.80;;;;;;;;;;6271091;28;20056;-81
2023/07/07 04:31:28;;;;;;;;;;;;;;;;;;;;;
2023/07/07 04:42:09;;;;;;;3.97;1.98;;;;;;;;;;6159326;28;20075;-82
2023/07/07 04:56:50;;;;;;;3.88;1.70;;;;;;;;;;6096096;29;20122;-82
2023/07/07 05:03:27;;;;;;;3.90;1.58;;;;;;;;;;6145130;28;20050;-81
2023/07/07 05:06:32;;;;;;;4.95;2.33;;;;;;;;;;6146326;28;20052;-83
2023/07/07 05:09:35;;;;;;;6.35;2.40;;;;;;;;;;6157671;28;20051;-82
2023/07/07 05:12:45;;;;;;;5.15;2.30;;;;;;;;;;6146995;28;20125;-81
2023/07/07 05:15:49;;;;;;;6.35;2.95;;;;;;;;;;6214494;28;20344;-81
2023/07/07 05:19:02;;;;;;;4.32;2.28;;;;;;;;;;6207075;28;20287;-81
2023/07/07 05:22:04;;;;;;;5.87;3.40;;;;;;;;;;6215340;28;20088;-81
2023/07/07 05:25:06;;;;;;;6.10;2.97;;;;;;;;;;6217720;28;20058;-81
2023/07/07 05:28:07;;;;;;;5.70;3.08;;;;;;;;;;6217350;28;20054;-81
2023/07/07 05:31:09;;;;;;;5.95;3.30;;;;;;;;;;6218618;28;20050;-82
2023/07/07 05:34:12;;;;;;;6.05;3.47;;;;;;;;;;6275880;28;20363;-80
2023/07/07 05:37:30;;;;;;;6.40;3.00;;;;;;;;;;6275689;28;20103;-81
2023/07/07 05:40:31;;;;;;;7.05;2.78;;;;;;;;;;6273105;28;20053;-81
2023/07/07 05:43:35;;;;;;;7.40;3.40;;;;;;;;;;6299475;28;20060;-80
2023/07/07 05:46:36;;;;;;;4.72;2.83;;;;;;;;;;6285648;28;20119;-80
2023/07/07 05:49:42;;;;;;;6.07;3.03;;;;;;;;;;6277741;28;20352;-81
2023/07/07 05:52:43;;;;;;;5.07;2.78;;;;;;;;;;6300929;28;20048;-81
2023/07/07 05:55:46;;;;;;;6.50;3.20;;;;;;;;;;6297857;28;20078;-81
2023/07/07 05:58:50;;;;;;;4.95;2.95;;;;;;;;;;6313311;28;20284;-81
2023/07/07 06:01:52;;;;;;;46.70;6.15;;;;;;;;;;6309041;28;20060;-85
2023/07/07 06:04:55;;;;;;;43.53;5.80;;;;;;;;;;6320816;28;21497;-71
2023/07/07 06:07:58;;;;;;;8.05;3.50;;;;;;;;;;6322862;28;20056;-73
2023/07/07 06:11:00;;;;;;;8.25;4.22;;;;;;;;;;6320833;28;20036;-72
2023/07/07 06:14:01;;;;;;;8.60;3.70;;;;;;;;;;6324202;28;20322;-73
2023/07/07 06:17:03;;;;;;;16.75;3.33;;;;;;;;;;6321774;28;20350;-73
2023/07/07 06:20:06;;;;;;;8.13;3.80;;;;;;;;;;6320905;28;20101;-71
2023/07/07 06:23:09;;;;;;;9.75;3.83;;;;;;;;;;6323009;28;20101;-72
2023/07/07 06:26:11;;;;;;;8.55;3.75;;;;;;;;;;6322669;28;21642;-72
2023/07/07 06:29:12;;;;;;;7.25;3.45;;;;;;;;;;6323074;28;20051;-75
2023/07/07 06:32:14;;;;;;;9.77;3.53;;;;;;;;;;6321167;28;20224;-73
2023/07/07 06:35:17;;;;;;;5.85;3.15;;;;;;;;;;6321851;28;20059;-74
2023/07/07 06:38:18;;;;;;;;;;;;;;;;;;6325735;28;20166;-72
2023/07/07 06:41:21;;;;;;;7.47;3.08;;;;;;;;;;6323244;28;19916;-72
2023/07/07 06:44:23;;;;;;;9.90;3.15;;;;;;;;;;6322432;28;20063;-73
2023/07/07 06:47:24;;;;;;;8.27;3.15;;;;;;;;;;6322890;28;20059;-75
2023/07/07 06:50:29;;;;;;;5.22;3.15;;;;;;;;;;6325911;28;20100;-76
2023/07/07 06:53:30;;;;;;;8.70;3.42;;;;;;;;;;6322409;28;20081;-78
2023/07/07 06:56:32;;;;;;;6.03;3.53;;;;;;;;;;6321707;28;20097;-76
2023/07/07 06:59:34;;;;;;;6.57;3.47;;;;;;;;;;6323313;28;20044;-78
2023/07/07 07:02:35;;;;;;;7.25;3.00;;;;;;;;;;6330564;28;20224;-77
2023/07/07 07:05:38;;;;;;;5.85;3.25;;;;;;;;;;6328972;28;20098;-77
2023/07/07 07:08:39;;;;;;;7.68;3.60;;;;;;;;;;6327570;28;20241;-76
2023/07/07 07:11:41;;;;;;;9.27;3.35;;;;;;;;;;6327592;28;20047;-76
2023/07/07 07:14:42;;;;;;;7.18;3.55;;;;;;;;;;6328283;28;20332;-76
2023/07/07 07:17:44;;;;;;;5.63;3.33;;;;;;;;;;6326297;28;20062;-77
2023/07/07 07:20:49;;;;;;;7.90;3.40;;;;;;;;;;6326539;28;20060;-75
2023/07/07 07:23:51;;;;;;;6.88;3.60;;;;;;;;;;6327389;28;20674;-80
2023/07/07 07:26:52;;;;;;;7.00;3.45;;;;;;;;;;6327423;28;20044;-77
2023/07/07 07:29:54;;;;;;;9.63;3.65;;;;;;;;;;6328117;28;20097;-77
2023/07/07 07:32:55;;;;;;;9.05;3.33;;;;;;;;;;6327104;28;20059;-77
2023/07/07 07:35:58;;;;;;;8.20;3.75;;;;;;;;;;6320367;28;20060;-77
2023/07/07 07:38:59;;;;;;;8.13;3.67;;;;;;;;;;6322297;28;20055;-77
2023/07/07 07:42:01;;;;;;;9.18;3.58;;;;;;;;;;6324951;28;20073;-77
2023/07/07 07:45:02;;;;;;;10.30;4.10;;;;;;;;;;6322961;28;20047;-75
2023/07/07 07:48:04;;;;;;;5.50;3.28;;;;;;;;;;6326232;28;20105;-74
2023/07/07 07:51:07;;;;;;;7.47;3.35;;;;;;;;;;6325448;28;20048;-72
2023/07/07 07:54:09;;;;;;;6.22;3.33;;;;;;;;;;6326287;28;20052;-73
2023/07/07 07:57:11;;;;;;;7.20;3.42;;;;;;;;;;6324537;28;20072;-72
2023/07/07 08:00:13;;;;;;;5.88;3.35;;;;;;;;;;6302798;28;20357;-73
2023/07/07 08:03:14;;;;;;;7.68;2.92;;;;;;;;;;6303061;28;20053;-72
2023/07/07 08:06:17;;;;;;;5.15;2.90;;;;;;;;;;6301440;28;20056;-70
2023/07/07 08:09:19;;;;;;;6.03;3.08;;;;;;;;;;6300349;28;20082;-72
2023/07/07 08:12:20;;;;;;;6.10;2.92;;;;;;;;;;6301580;28;20298;-75
2023/07/07 08:15:22;;;;;;;5.13;3.45;;;;;;;;;;6303657;28;20052;-76
2023/07/07 08:18:23;;;;;;;8.75;3.65;;;;;;;;;;6301762;28;20049;-73
2023/07/07 08:21:26;;;;;;;7.07;3.25;;;;;;;;;;6300598;28;20048;-73
2023/07/07 08:24:28;;;;;;;6.43;2.97;;;;;;;;;;6301506;28;20056;-75
2023/07/07 08:27:29;;;;;;;5.55;2.80;;;;;;;;;;6300878;28;20048;-76
2023/07/07 08:30:31;;;;;;;4.90;2.60;;;;;;;;;;6301562;28;20514;-76
2023/07/07 08:33:32;;;;;;;6.13;2.85;;;;;;;;;;6301332;28;20044;-75
2023/07/07 08:36:35;;;;;;;5.75;2.63;;;;;;;;;;6302595;28;20055;-76
2023/07/07 08:39:36;;;;;;;;;;;;;;;;;;6303333;28;20054;-75
2023/07/07 08:42:39;;;;;;;8.15;2.53;;;;;;;;;;6299772;28;20707;-75
2023/07/07 08:45:43;;;;;;;6.43;2.80;;;;;;;;;;6302658;28;20481;-73
2023/07/07 08:48:45;;;;;;;7.78;2.72;;;;;;;;;;6297593;28;20336;-76
2023/07/07 08:51:54;;;;;;;4.25;2.65;;;;;;;;;;6304092;28;20060;-76
2023/07/07 08:55:02;;;;;;;6.45;2.53;;;;;;;;;;6301752;28;20052;-74
2023/07/07 08:58:06;;;;;;;5.70;2.60;;;;;;;;;;6313960;28;20068;-75
2023/07/07 09:01:15;;;;;;;7.65;2.72;;;;;;;;;;6325413;28;20056;-75
2023/07/07 09:04:31;;;;;;;6.63;2.78;;;;;;;;;;6323943;28;20056;-73
2023/07/07 09:07:41;;;;;;;5.05;2.90;;;;;;;;;;6326848;28;20040;-74
2023/07/07 09:10:48;;;;;;;4.32;2.80;;;;;;;;;;6323151;28;20059;-73
2023/07/07 09:13:52;;;;;;;6.07;2.75;;;;;;;;;;6325747;28;20059;-72
2023/07/07 09:16:56;;;;;;;6.97;3.00;;;;;;;;;;6323778;28;20056;-74
2023/07/07 09:20:00;;;;;;;6.20;2.83;;;;;;;;;;6327722;28;20052;-77
2023/07/07 09:23:04;;;;;;;8.75;3.45;;;;;;;;;;6323991;28;20052;-78
2023/07/07 09:26:07;;;;;;;8.35;3.80;;;;;;;;;;6324964;28;20367;-78
2023/07/07 09:29:15;;;;;;;6.30;3.53;;;;;;;;;;6324111;28;20052;-77
2023/07/07 09:32:20;;;;;;;7.75;3.67;;;;;;;;;;6327529;28;21660;-79
2023/07/07 09:35:23;;;;;;;5.75;3.10;;;;;;;;;;6323756;28;20036;-79
2023/07/07 09:38:30;;;;;;;6.25;3.15;;;;;;;;;;6327256;28;20044;-78
2023/07/07 09:41:37;;;;;;;6.05;3.28;;;;;;;;;;6322955;28;20048;-79
2023/07/07 09:44:53;;;;;;;6.60;3.30;;;;;;;;;;6324490;28;20055;-80
2023/07/07 09:47:58;;;;;;;8.10;3.67;;;;;;;;;;6324531;28;20047;-79
2023/07/07 09:51:01;;;;;;;7.00;3.78;;;;;;;;;;6323932;28;20047;-78
2023/07/07 09:54:04;;;;;;;7.05;3.22;;;;;;;;;;6322881;28;20060;-78
2023/07/07 09:57:11;;;;;;;7.20;3.15;;;;;;;;;;6324039;28;20055;-79
2023/07/07 10:00:15;;;;;;;9.35;3.97;;;;;;;;;;6324925;28;20190;-77
2023/07/07 10:03:21;;;;;;;6.20;3.45;;;;;;;;;;6321932;28;20050;-77
2023/07/07 10:06:25;;;;;;;5.95;3.50;;;;;;;;;;6325651;28;20240;-76
2023/07/07 10:09:31;;;;;;;4.72;2.90;;;;;;;;;;6323966;28;20514;-78
2023/07/07 10:12:32;;;;;;;6.03;3.38;;;;;;;;;;6325084;28;20352;-77
2023/07/07 10:15:51;;;;;;;6.07;3.67;;;;;;;;;;6324180;28;20048;-77
2023/07/07 10:18:53;;;;;;;8.05;4.15;;;;;;;;;;6324275;28;20108;-78
2023/07/07 10:21:54;;;;;;;7.63;3.53;;;;;;;;;;6326368;28;20094;-76
2023/07/07 10:24:57;;;;;;;9.50;3.75;;;;;;;;;;6323555;28;20268;-77
2023/07/07 10:28:00;;;;;;;7.32;3.58;;;;;;;;;;6325215;28;20040;-77
2023/07/07 10:31:02;;;;;;;6.97;4.05;;;;;;;;;;6323522;28;20044;-77
2023/07/07 10:34:22;;;;;;;6.50;3.30;;;;;;;;;;6326827;28;20055;-77
2023/07/07 10:37:24;;;;;;;6.55;3.20;;;;;;;;;;6326827;28;20399;-77
2023/07/07 10:40:27;;;;;;;7.32;3.55;;;;;;;;;;6330769;28;20051;-84
2023/07/07 10:43:28;;;;;;;6.00;3.60;;;;;;;;;;6329237;28;21186;-74
2023/07/07 10:46:30;;;;;;;9.10;3.87;;;;;;;;;;6329523;28;20048;-77
2023/07/07 10:49:32;;;;;;;8.02;3.70;;;;;;;;;;6328294;28;20115;-77
2023/07/07 10:52:41;;;;;;;5.55;3.20;;;;;;;;;;6310076;28;20044;-74
2023/07/07 10:56:00;;;;;;;6.40;3.53;;;;;;;;;;6325164;28;20047;-74
2023/07/07 10:59:27;;;;;;;8.63;3.97;;;;;;;;;;6330383;28;20647;-74
2023/07/07 11:02:46;;;;;;;7.88;3.97;;;;;;;;;;6328930;28;20060;-74
2023/07/07 11:05:48;;;;;;;7.88;3.88;;;;;;;;;;6327125;28;20052;-76
2023/07/07 11:08:53;;;;;;;8.63;4.00;;;;;;;;;;6325993;28;20053;-80
2023/07/07 11:12:01;;;;;;;8.35;4.28;;;;;;;;;;6325524;28;20073;-78
2023/07/07 11:15:10;;;;;;;7.22;4.60;;;;;;;;;;6325591;28;20075;-75
2023/07/07 11:18:20;;;;;;;7.47;4.40;;;;;;;;;;6326994;28;20279;-80
2023/07/07 11:21:27;;;;;;;6.70;3.67;;;;;;;;;;6327393;28;20366;-75
2023/07/07 11:24:31;;;;;;;9.52;4.65;;;;;;;;;;6328328;28;20048;-80
2023/07/07 11:27:50;;;;;;;7.75;3.47;;;;;;;;;;6327370;28;20059;-74
2023/07/07 11:30:58;;;;;;;6.20;3.60;;;;;;;;;;6329741;28;20058;-75
2023/07/07 11:34:04;;;;;;;11.52;4.85;;;;;;;;;;6333900;28;20067;-74
2023/07/07 11:37:14;;;;;;;6.22;3.65;;;;;;;;;;6331019;28;20056;-74
2023/07/07 11:40:25;;;;;;;8.32;3.78;;;;;;;;;;6332988;28;20056;-76
2023/07/07 11:43:42;;;;;;;7.70;4.20;;;;;;;;;;6331669;28;20063;-78
2023/07/07 11:46:53;;;;;;;6.13;3.85;;;;;;;;;;6333610;28;20249;-76
2023/07/07 11:50:07;;;;;;;5.47;3.03;;;;;;;;;;6327075;28;20066;-74
2023/07/07 11:53:19;;;;;;;7.22;4.53;;;;;;;;;;6331789;28;20063;-77
2023/07/07 11:56:27;;;;;;;5.70;3.88;;;;;;;;;;6332930;28;20389;-74
2023/07/07 11:59:40;;;;;;;9.82;4.55;;;;;;;;;;6331231;28;20047;-73
2023/07/07 12:02:45;;;;;;;7.78;4.65;;;;;;;;;;6332535;28;20076;-75
2023/07/07 12:05:47;;;;;;;6.40;3.95;;;;;;;;;;6332544;28;20043;-76
2023/07/07 12:08:57;;;;;;;7.88;3.80;;;;;;;;;;6331501;28;20052;-74
2023/07/07 12:12:04;;;;;;;7.75;4.05;;;;;;;;;;6331270;28;20269;-75
2023/07/07 12:15:10;;;;;;;7.22;4.55;;;;;;;;;;6330049;28;20058;-74
2023/07/07 12:18:15;;;;;;;9.68;4.50;;;;;;;;;;6333391;28;20055;-74
2023/07/07 12:21:18;;;;;;;7.47;3.60;;;;;;;;;;6328830;28;20089;-75
2023/07/07 12:24:22;;;;;;;9.95;3.78;;;;;;;;;;6331583;28;20047;-75
2023/07/07 12:27:27;;;;;;;5.00;3.17;;;;;;;;;;6331670;28;20348;-74
2023/07/07 12:30:30;;;;;;;5.38;3.13;;;;;;;;;;6330911;28;20051;-74
2023/07/07 12:33:39;;;;;;;5.07;3.00;;;;;;;;;;6329337;28;20052;-75
2023/07/07 12:36:40;;;;;;;5.85;3.28;;;;;;;;;;6325768;28;20052;-74
2023/07/07 12:39:52;;;;;;;8.48;4.30;;;;;;;;;;6324145;28;20324;-74
2023/07/07 12:43:14;;;;;;;6.00;3.38;;;;;;;;;;6324229;28;20060;-75
2023/07/07 12:46:17;;;;;;;5.68;2.75;;;;;;;;;;6325600;28;20056;-75
2023/07/07 12:49:23;;;;;;;6.10;2.70;;;;;;;;;;6322859;28;20051;-74
2023/07/07 12:52:27;;;;;;;4.53;3.03;;;;;;;;;;6323909;28;20071;-74
2023/07/07 12:55:29;;;;;;;6.50;3.08;;;;;;;;;;6324140;28;20036;-73
2023/07/07 12:58:34;;;;;;;3.88;2.92;;;;;;;;;;6328521;28;20056;-74
2023/07/07 13:01:36;;;;;;;5.03;2.58;;;;;;;;;;6326703;28;20339;-75
2023/07/07 13:04:43;;;;;;;5.40;3.15;;;;;;;;;;6324837;28;20068;-74
2023/07/07 13:07:58;;;;;;;5.97;3.25;;;;;;;;;;6322053;28;20048;-75
2023/07/07 13:11:01;;;;;;;5.55;2.92;;;;;;;;;;6326614;28;20351;-75
2023/07/07 13:14:03;;;;;;;5.38;2.80;;;;;;;;;;6328353;28;20048;-74
2023/07/07 13:17:06;;;;;;;5.10;3.28;;;;;;;;;;6324565;28;20040;-75
2023/07/07 13:20:13;;;;;;;4.65;2.47;;;;;;;;;;6325026;28;20232;-75
2023/07/07 13:23:17;;;;;;;4.22;2.50;;;;;;;;;;6324259;28;20628;-74
2023/07/07 13:26:22;;;;;;;5.68;2.67;;;;;;;;;;6324364;28;20063;-75
2023/07/07 13:29:26;;;;;;;4.28;2.50;;;;;;;;;;6324127;28;20047;-80
2023/07/07 13:32:29;;;;;;;4.63;2.60;;;;;;;;;;6324686;28;20048;-73
2023/07/07 13:35:32;;;;;;;7.75;2.63;;;;;;;;;;6322387;28;20101;-75
2023/07/07 13:38:35;;;;;;;5.55;2.65;;;;;;;;;;6328753;28;20056;-75
2023/07/07 13:41:37;;;;;;;4.53;2.50;;;;;;;;;;6327413;28;20173;-75
2023/07/07 13:44:38;;;;;;;4.57;2.75;;;;;;;;;;6323537;28;20065;-74
2023/07/07 13:47:40;;;;;;;4.00;2.42;;;;;;;;;;6325358;28;20291;-76
2023/07/07 13:50:45;;;;;;;6.13;2.75;;;;;;;;;;6324746;28;20048;-74
2023/07/07 13:53:46;;;;;;;4.13;2.20;;;;;;;;;;6325873;28;20040;-76
2023/07/07 13:56:49;;;;;;;5.57;2.72;;;;;;;;;;6326160;28;20131;-74
2023/07/07 13:59:51;;;;;;;3.05;2.10;;;;;;;;;;6323031;28;20105;-76
2023/07/07 14:02:53;;;;;;;4.43;2.30;;;;;;;;;;6326143;28;20048;-75
2023/07/07 14:05:57;;;;;;;5.25;2.50;;;;;;;;;;6320082;28;20205;-76
2023/07/07 14:08:59;;;;;;;3.63;2.33;;;;;;;;;;6327401;28;20270;-75
2023/07/07 14:12:03;;;;;;;3.15;2.22;;;;;;;;;;6325589;28;20097;-76
2023/07/07 14:15:05;;;;;;;4.40;2.17;;;;;;;;;;6322816;28;20071;-75
2023/07/07 14:18:09;;;;;;;3.55;2.03;;;;;;;;;;6326448;28;20225;-76
2023/07/07 14:21:16;;;;;;;4.65;2.30;;;;;;;;;;6324665;28;20266;-75
2023/07/07 14:24:23;;;;;;;3.17;2.00;;;;;;;;;;6323124;28;20059;-76
2023/07/07 14:27:26;;;;;;;3.83;1.90;;;;;;;;;;6323438;28;20102;-76
2023/07/07 14:30:28;;;;;;;5.40;2.00;;;;;;;;;;6324630;28;20280;-76
2023/07/07 14:33:31;;;;;;;6.00;2.10;;;;;;;;;;6324477;28;20104;-78
2023/07/07 14:36:37;;;;;;;3.95;2.13;;;;;;;;;;6324069;28;20276;-75
2023/07/07 14:39:39;;;;;;;6.25;2.22;;;;;;;;;;6323224;28;20056;-74
2023/07/07 14:42:40;;;;;;;;;;;;;;;;;;6325624;28;20229;-75
2023/07/07 14:45:42;;;;;;;3.13;1.80;;;;;;;;;;6322572;28;19924;-75
2023/07/07 14:48:43;;;;;;;;;;;;;;;;;;6323675;28;20275;-75
2023/07/07 14:51:48;;;;;;;3.78;2.00;;;;;;;;;;6324942;28;19919;-74
2023/07/07 14:54:50;;;;;;;3.85;1.98;;;;;;;;;;6322820;28;20060;-75
2023/07/07 14:57:55;;;;;;;3.25;2.40;;;;;;;;;;6325538;28;20116;-76
2023/07/07 15:01:03;;;;;;;4.82;2.08;;;;;;;;;;6323915;28;20039;-76
2023/07/07 15:04:12;;;;;;;3.70;2.03;;;;;;;;;;6321168;28;20060;-75
2023/07/07 15:07:17;;;;;;;3.75;2.10;;;;;;;;;;6320985;28;20060;-76
2023/07/07 15:10:19;;;;;;;4.40;1.70;;;;;;;;;;6327855;28;20044;-76
2023/07/07 15:13:21;;;;;;;3.20;1.95;;;;;;;;;;6324904;28;20106;-75
2023/07/07 15:16:24;;;;;;;4.28;2.03;;;;;;;;;;6323565;28;20051;-75
2023/07/07 15:19:25;;;;;;;;;;;;;;;;;;6323941;28;20063;-75
2023/07/07 15:22:28;;;;;;;3.83;1.98;;;;;;;;;;6328156;28;19924;-75
2023/07/07 15:25:29;;;;;;;2.58;1.67;;;;;;;;;;6326526;28;20078;-75
2023/07/07 15:28:31;;;;;;;4.07;1.80;;;;;;;;;;6328333;28;20279;-75
2023/07/07 15:31:32;;;;;;;4.13;1.98;;;;;;;;;;6326781;28;20221;-75
2023/07/07 15:34:33;;;;;;;3.00;1.77;;;;;;;;;;6327140;28;20044;-75
2023/07/07 15:37:36;;;;;;;2.88;1.60;;;;;;;;;;6328068;28;20036;-75
2023/07/07 15:40:38;;;;;;;2.90;1.63;;;;;;;;;;6325036;28;20064;-75
2023/07/07 15:43:39;;;;;;;2.60;1.77;;;;;;;;;;6330411;28;20096;-76
2023/07/07 15:46:41;;;;;;;3.40;1.70;;;;;;;;;;6325378;28;20563;-78
2023/07/07 15:49:42;;;;;;;2.58;1.40;;;;;;;;;;6326312;28;20146;-75
2023/07/07 15:52:45;;;;;;;3.90;2.15;;;;;;;;;;6330537;28;20063;-75
2023/07/07 15:55:46;;;;;;;;;;;;;;;;;;6327755;28;20101;-75
2023/07/07 15:58:47;;;;;;;3.95;1.60;;;;;;;;;;6326172;28;19924;-75
2023/07/07 16:01:51;;;;;;;7.38;1.83;;;;;;;;;;6325310;28;20336;-76
2023/07/07 16:04:52;;;;;;;3.67;1.80;;;;;;;;;;6326382;28;20063;-75
2023/07/07 16:07:55;;;;;;;5.68;1.55;;;;;;;;;;6330253;28;20252;-74
2023/07/07 16:10:57;;;;;;;2.28;1.52;;;;;;;;;;6326359;28;20048;-75
2023/07/07 16:13:58;;;;;;;3.97;2.13;;;;;;;;;;6325768;28;20389;-74
2023/07/07 16:17:00;;;;;;;6.43;1.60;;;;;;;;;;6326217;28;20047;-75
2023/07/07 16:20:09;;;;;;;3.72;1.88;;;;;;;;;;6327757;28;20059;-75
2023/07/07 16:23:11;;;;;;;4.25;1.70;;;;;;;;;;6325659;28;20078;-75
2023/07/07 16:26:13;;;;;;;;;;;;;;;;;;6326400;28;20060;-76
2023/07/07 16:29:15;;;;;;;4.78;1.80;;;;;;;;;;6326725;28;19923;-75
2023/07/07 16:32:17;;;;;;;2.90;1.60;;;;;;;;;;6327083;28;20311;-75
2023/07/07 16:35:18;;;;;;;3.90;1.90;;;;;;;;;;6326471;28;20052;-78
2023/07/07 16:38:21;;;;;;;3.70;2.00;;;;;;;;;;6327837;28;20048;-76
2023/07/07 16:41:23;;;;;;;;;;;;;;;;;;6324493;28;20049;-77
2023/07/07 16:44:25;;;;;;;2.85;1.83;;;;;;;;;;6326600;28;19923;-75
2023/07/07 16:47:26;;;;;;;3.75;1.95;;;;;;;;;;6326816;28;20051;-76
2023/07/07 16:50:29;;;;;;;4.88;2.50;;;;;;;;;;6327052;28;20064;-75
2023/07/07 16:53:32;;;;;;;3.20;2.20;;;;;;;;;;6325280;28;20332;-75
2023/07/07 16:56:35;;;;;;;5.32;2.30;;;;;;;;;;6327470;28;20060;-75
2023/07/07 16:59:36;;;;;;;5.80;2.20;;;;;;;;;;6306253;28;20048;-75
2023/07/07 17:02:38;;;;;;;2.85;1.95;;;;;;;;;;6302771;28;20076;-78
2023/07/07 17:05:39;;;;;;;3.95;1.75;;;;;;;;;;6302024;28;20060;-77
2023/07/07 17:08:42;;;;;;;6.60;2.30;;;;;;;;;;6300758;28;20056;-75
2023/07/07 17:11:43;;;;;;;8.30;2.70;;;;;;;;;;6302140;28;20048;-75
2023/07/07 17:14:45;;;;;;;4.00;1.95;;;;;;;;;;6299961;28;20332;-76
2023/07/07 17:17:46;;;;;;;5.72;2.17;;;;;;;;;;6300301;28;20120;-78
2023/07/07 17:20:47;;;;;;;4.18;2.22;;;;;;;;;;6300406;28;20093;-75
2023/07/07 17:23:50;;;;;;;6.35;2.55;;;;;;;;;;6300834;28;20053;-75
2023/07/07 17:26:52;;;;;;;;;;;;;;;;;;6300124;28;20044;-75
2023/07/07 17:29:53;;;;;;;5.82;1.90;;;;;;;;;;6300323;28;19928;-75
2023/07/07 17:32:55;;;;;;;3.55;1.95;;;;;;;;;;6300529;28;20052;-75
2023/07/07 17:35:56;;;;;;;3.50;2.15;;;;;;;;;;6299637;28;20236;-75
2023/07/07 17:39:00;;;;;;;3.83;2.10;;;;;;;;;;6299634;28;20072;-75
2023/07/07 17:42:01;;;;;;;6.82;2.58;;;;;;;;;;6299544;28;20044;-75
2023/07/07 17:45:03;;;;;;;3.53;2.25;;;;;;;;;;6301736;28;20090;-75
2023/07/07 17:48:09;;;;;;;4.60;2.05;;;;;;;;;;6303605;28;20044;-76
2023/07/07 17:51:10;;;;;;;5.05;2.28;;;;;;;;;;6300069;28;20044;-76
2023/07/07 17:54:13;;;;;;;3.28;2.05;;;;;;;;;;6301024;28;20041;-75
2023/07/07 17:57:15;;;;;;;3.53;2.00;;;;;;;;;;6300096;28;20060;-75
2023/07/07 18:00:19;;;;;;;3.63;1.95;;;;;;;;;;6323187;28;20045;-75
2023/07/07 18:03:21;;;;;;;6.80;2.13;;;;;;;;;;6327792;28;20058;-75
2023/07/07 18:06:24;;;;;;;5.13;2.05;;;;;;;;;;6326244;28;20039;-75
2023/07/07 18:09:27;;;;;;;5.30;2.10;;;;;;;;;;6323956;28;20052;-76
2023/07/07 18:12:29;;;;;;;3.13;1.70;;;;;;;;;;6322923;28;20059;-77
2023/07/07 18:15:30;;;;;;;3.67;2.17;;;;;;;;;;6322019;28;20050;-77
2023/07/07 18:18:32;;;;;;;5.28;2.00;;;;;;;;;;6323488;28;20056;-76
2023/07/07 18:21:33;;;;;;;5.20;1.70;;;;;;;;;;6322258;28;20048;-76
2023/07/07 18:24:36;;;;;;;5.72;1.90;;;;;;;;;;6323276;28;20050;-76
2023/07/07 18:27:38;;;;;;;4.88;2.00;;;;;;;;;;6322721;28;20048;-77
2023/07/07 18:30:42;;;;;;;4.78;1.83;;;;;;;;;;6324265;28;20063;-76
2023/07/07 18:33:44;;;;;;;3.72;1.83;;;;;;;;;;6328928;28;20056;-77
2023/07/07 18:36:47;;;;;;;3.40;1.80;;;;;;;;;;6324859;28;20062;-77
2023/07/07 18:39:50;;;;;;;3.25;1.98;;;;;;;;;;6325914;28;20052;-75
2023/07/07 18:42:52;;;;;;;;;;;;;;;;;;6328300;28;20063;-75
2023/07/07 18:45:54;;;;;;;3.97;1.83;;;;;;;;;;6329898;28;19916;-76
2023/07/07 18:48:55;;;;;;;4.93;2.17;;;;;;;;;;6329418;28;20052;-78
2023/07/07 18:51:57;;;;;;;3.60;2.10;;;;;;;;;;6329635;28;20274;-76
2023/07/07 18:54:59;;;;;;;5.65;2.45;;;;;;;;;;6327389;28;20040;-76
2023/07/07 18:58:01;;;;;;;6.95;2.35;;;;;;;;;;6332433;28;20109;-78
2023/07/07 19:01:03;;;;;;;3.65;2.20;;;;;;;;;;6333715;28;20047;-76
2023/07/07 19:04:04;;;;;;;6.30;2.40;;;;;;;;;;6331926;28;20277;-80
2023/07/07 19:07:08;;;;;;;5.60;2.10;;;;;;;;;;6330925;28;20232;-79
2023/07/07 19:10:18;;;;;;;4.43;2.22;;;;;;;;;;6332227;28;20093;-79
2023/07/07 19:13:21;;;;;;;6.05;2.28;;;;;;;;;;6329095;28;20328;-81
2023/07/07 19:16:24;;;;;;;5.18;2.45;;;;;;;;;;6333902;28;20111;-81
2023/07/07 19:19:27;;;;;;;5.28;2.92;;;;;;;;;;6332664;28;20515;-80
2023/07/07 19:22:28;;;;;;;6.32;2.85;;;;;;;;;;6331679;28;20332;-78
2023/07/07 19:25:31;;;;;;;6.10;3.20;;;;;;;;;;6333331;28;20071;-79
2023/07/07 19:28:33;;;;;;;5.70;2.70;;;;;;;;;;6332541;28;20242;-78
2023/07/07 19:31:35;;;;;;;6.38;3.00;;;;;;;;;;6333100;28;20044;-78
2023/07/07 19:34:36;;;;;;;5.90;2.70;;;;;;;;;;6332215;28;20468;-79
2023/07/07 19:37:38;;;;;;;12.10;2.88;;;;;;;;;;6332120;28;20079;-78
2023/07/07 19:40:41;;;;;;;6.60;2.30;;;;;;;;;;6331389;28;20044;-79
2023/07/07 19:43:43;;;;;;;8.20;3.10;;;;;;;;;;6331290;28;20060;-79
2023/07/07 19:46:45;;;;;;;4.25;2.55;;;;;;;;;;6332146;28;20082;-78